Terminal Aerodrome Forecast
Issued by NWS Greer, SC

Home | Current Version | Previous Version | Text Only | Print | Product List | Glossary On
Versions: 1 2 3 4 5 6 7 8 9 10 11 12 13 14 15 16
226
FTUS42 KGSP 251734
TAFGSP
TAF
KGSP 251734Z 2518/2618 11004KT P6SM FEW060
     FM260000 12004KT P6SM VCTS BKN060CB
     FM260300 08004KT P6SM BKN060
     FM260800 05003KT P6SM BKN020
     FM261000 07003KT 5SM BR SCT003 BKN008
     FM261200 12003KT P6SM OVC008
     FM261500 18004KT P6SM BKN030=

USA.gov is the U.S. government's official web portal to all federal, state and local government web resources and services.